createdAt,value
2023-04-15T00:00:56.672Z,4.45
2023-04-15T00:03:23.596Z,4.73
2023-04-15T00:05:50.359Z,4.43
2023-04-15T00:08:16.884Z,4.10
2023-04-15T00:10:44.842Z,4.13
2023-04-15T00:13:11.335Z,4.82
2023-04-15T00:15:38.117Z,4.27
2023-04-15T00:18:04.721Z,4.50
2023-04-15T00:20:31.300Z,4.70
2023-04-15T00:22:57.999Z,4.63
2023-04-15T00:25:24.706Z,5.50
2023-04-15T00:27:52.574Z,5.20
2023-04-15T00:30:19.262Z,4.65
2023-04-15T00:32:48.099Z,4.70
2023-04-15T00:35:14.640Z,4.53
2023-04-15T00:37:41.360Z,5.10
2023-04-15T00:40:13.078Z,4.40
2023-04-15T00:42:39.681Z,4.80
2023-04-15T00:45:09.048Z,4.93
2023-04-15T00:47:36.379Z,4.30
2023-04-15T00:50:03.154Z,4.80
2023-04-15T00:52:29.746Z,5.10
2023-04-15T00:54:56.433Z,4.65
2023-04-15T00:57:22.944Z,5.20
2023-04-15T00:59:50.054Z,5.05
2023-04-15T01:02:18.334Z,4.57
2023-04-15T01:04:45.097Z,4.53
2023-04-15T01:07:11.619Z,4.88
2023-04-15T01:09:47.716Z,5.15
2023-04-15T01:12:14.946Z,4.78
2023-04-15T01:14:41.751Z,4.25
2023-04-15T01:17:08.363Z,4.97
2023-04-15T01:19:36.497Z,4.90
2023-04-15T01:22:03.585Z,4.68
2023-04-15T01:24:31.879Z,5.22
2023-04-15T01:27:00.061Z,4.80
2023-04-15T01:29:26.714Z,4.70
2023-04-15T01:31:54.961Z,5.38
2023-04-15T01:34:21.991Z,6.15
2023-04-15T01:36:48.647Z,6.40
2023-04-15T01:39:15.317Z,5.68
2023-04-15T01:41:41.863Z,6.10
2023-04-15T01:44:09.755Z,6.10
2023-04-15T01:46:36.626Z,6.90
2023-04-15T01:49:03.359Z,6.45
2023-04-15T01:51:30.107Z,7.32
2023-04-15T01:53:56.684Z,6.93
2023-04-15T01:56:23.468Z,6.43
2023-04-15T01:58:50.390Z,6.40
2023-04-15T02:01:18.526Z,5.80
2023-04-15T02:03:45.600Z,4.97
2023-04-15T02:06:12.209Z,4.70
2023-04-15T02:08:38.723Z,5.30
2023-04-15T02:11:05.547Z,5.10
2023-04-15T02:13:32.212Z,4.85
2023-04-15T02:15:58.969Z,4.75
2023-04-15T02:18:27.198Z,5.00
2023-04-15T02:20:53.777Z,5.00
2023-04-15T02:23:20.297Z,4.82
2023-04-15T02:25:53.935Z,5.47
2023-04-15T02:28:21.097Z,5.35
2023-04-15T02:30:48.189Z,5.00
2023-04-15T02:33:14.775Z,4.82
2023-04-15T02:35:42.807Z,4.95
2023-04-15T02:38:09.347Z,4.40
2023-04-15T02:40:35.879Z,5.00
2023-04-15T02:43:02.399Z,4.10
2023-04-15T02:45:28.998Z,4.38
2023-04-15T02:47:55.553Z,4.68
2023-04-15T02:50:22.178Z,4.10
2023-04-15T02:52:50.049Z,4.70
2023-04-15T02:55:16.602Z,5.10
2023-04-15T02:57:43.236Z,5.28
2023-04-15T03:00:10.670Z,4.88
2023-04-15T03:02:38.332Z,5.32
2023-04-15T03:05:05.940Z,5.85
2023-04-15T03:07:32.585Z,4.83
2023-04-15T03:10:00.482Z,4.80
2023-04-15T03:12:27.051Z,5.57
2023-04-15T03:14:53.708Z,6.18
2023-04-15T03:17:20.327Z,5.75
2023-04-15T03:19:46.904Z,5.40
2023-04-15T03:22:13.541Z,5.25
2023-04-15T03:24:40.125Z,4.85
2023-04-15T03:27:08.073Z,4.88
2023-04-15T03:29:34.705Z,5.03
2023-04-15T03:32:01.189Z,4.70
2023-04-15T03:34:27.810Z,5.13
2023-04-15T03:36:54.290Z,5.00
2023-04-15T03:39:20.822Z,5.00
2023-04-15T03:41:47.380Z,5.50
2023-04-15T03:44:15.256Z,5.73
2023-04-15T03:46:42.060Z,5.50
2023-04-15T03:49:08.646Z,5.47
2023-04-15T03:51:35.268Z,5.00
2023-04-15T03:54:01.823Z,4.57
2023-04-15T03:56:28.365Z,4.40
2023-04-15T03:58:54.983Z,4.10
2023-04-15T04:01:23.072Z,4.50
2023-04-15T04:03:49.870Z,4.72
2023-04-15T04:06:16.702Z,4.85
2023-04-15T04:08:43.291Z,5.23
2023-04-15T04:11:09.880Z,4.70
2023-04-15T04:13:36.651Z,5.63
2023-04-15T04:16:03.372Z,4.95
2023-04-15T04:18:31.563Z,5.00
2023-04-15T04:20:58.161Z,5.30
2023-04-15T04:23:25.326Z,5.35
2023-04-15T04:25:51.851Z,5.95
2023-04-15T04:28:18.352Z,5.82
2023-04-15T04:30:45.221Z,5.90
2023-04-15T04:33:11.728Z,5.87
2023-04-15T04:35:39.854Z,5.65
2023-04-15T04:38:06.344Z,5.80
2023-04-15T04:40:32.913Z,5.78
2023-04-15T04:42:59.772Z,5.80
2023-04-15T04:45:26.393Z,5.90
2023-04-15T04:47:52.983Z,5.68
2023-04-15T04:50:19.558Z,5.93
2023-04-15T04:52:47.423Z,5.72
2023-04-15T04:55:13.946Z,5.60
2023-04-15T04:57:40.551Z,5.60
2023-04-15T05:00:08.163Z,5.38
2023-04-15T05:02:35.000Z,5.75
2023-04-15T05:05:01.618Z,5.75
2023-04-15T05:07:28.428Z,5.68
2023-04-15T05:09:56.379Z,5.57
2023-04-15T05:12:22.968Z,6.07
2023-04-15T05:14:49.619Z,6.00
2023-04-15T05:17:16.126Z,5.93
2023-04-15T05:19:42.643Z,6.03
2023-04-15T05:22:09.306Z,6.17
2023-04-15T05:24:35.817Z,6.25
2023-04-15T05:27:03.747Z,6.13
2023-04-15T05:29:30.327Z,6.20
2023-04-15T05:31:56.899Z,6.65
2023-04-15T05:34:23.479Z,5.90
2023-04-15T05:36:50.012Z,6.63
2023-04-15T05:39:16.528Z,6.65
2023-04-15T05:41:43.071Z,6.88
2023-04-15T05:44:10.929Z,6.78
2023-04-15T05:46:37.552Z,6.93
2023-04-15T05:49:04.217Z,6.50
2023-04-15T05:51:30.890Z,7.13
2023-04-15T05:53:57.450Z,7.03
2023-04-15T05:56:24.044Z,8.07
2023-04-15T05:58:52.454Z,7.73
2023-04-15T06:01:21.653Z,6.47
2023-04-15T06:03:48.483Z,7.07
2023-04-15T06:06:15.059Z,14.98
2023-04-15T06:08:41.656Z,34.53
2023-04-15T06:11:08.176Z,12.93
2023-04-15T06:13:35.072Z,8.55
2023-04-15T06:16:01.694Z,8.52
2023-04-15T06:18:29.625Z,8.13
2023-04-15T06:20:56.301Z,7.90
2023-04-15T06:23:23.013Z,7.73
2023-04-15T06:25:49.515Z,8.07
2023-04-15T06:28:16.083Z,8.40
2023-04-15T06:30:42.688Z,8.57
2023-04-15T06:33:09.286Z,8.93
2023-04-15T06:35:37.290Z,9.10
2023-04-15T06:38:03.895Z,23.08
2023-04-15T06:40:30.534Z,15.73
2023-04-15T06:42:57.084Z,8.93
2023-04-15T06:45:23.619Z,8.50
2023-04-15T06:47:50.175Z,8.90
2023-04-15T06:50:16.751Z,8.50
2023-04-15T06:52:44.800Z,9.23
2023-04-15T06:55:11.388Z,8.05
2023-04-15T06:57:37.926Z,8.82
2023-04-15T07:00:05.266Z,30.17
2023-04-15T07:02:32.087Z,10.50
2023-04-15T07:04:58.780Z,13.50
2023-04-15T07:07:25.607Z,10.48
2023-04-15T07:09:53.515Z,9.13
2023-04-15T07:12:20.292Z,8.83
2023-04-15T07:14:46.850Z,9.35
2023-04-15T07:17:13.718Z,11.38
2023-04-15T07:19:40.595Z,9.57
2023-04-15T07:22:07.344Z,9.38
2023-04-15T07:24:34.071Z,8.77
2023-04-15T07:27:02.143Z,8.98
2023-04-15T07:29:28.706Z,9.52
2023-04-15T07:31:55.232Z,8.98
2023-04-15T07:34:21.801Z,9.18
2023-04-15T07:36:48.519Z,9.87
2023-04-15T07:39:15.049Z,8.35
2023-04-15T07:41:41.761Z,8.32
2023-04-15T07:44:09.620Z,9.20
2023-04-15T07:46:36.344Z,9.20
2023-04-15T07:49:03.209Z,8.70
2023-04-15T07:51:29.924Z,9.10
2023-04-15T07:53:56.468Z,9.70
2023-04-15T07:56:23.017Z,8.40
2023-04-15T07:58:49.665Z,8.85
2023-04-15T08:01:17.594Z,9.20
2023-04-15T08:03:44.391Z,8.63
2023-04-15T08:06:11.009Z,9.60
2023-04-15T08:08:37.518Z,9.35
2023-04-15T08:11:04.073Z,9.25
2023-04-15T08:13:30.749Z,8.80
2023-04-15T08:16:14.462Z,8.65
2023-04-15T08:18:42.493Z,8.75
2023-04-15T08:21:09.006Z,9.15
2023-04-15T08:23:35.594Z,8.85
2023-04-15T08:26:02.313Z,8.33
2023-04-15T08:28:28.984Z,8.85
2023-04-15T08:30:55.575Z,8.60
2023-04-15T08:33:22.307Z,8.60
2023-04-15T08:35:50.183Z,8.65
2023-04-15T08:38:16.717Z,8.80
2023-04-15T08:40:45.016Z,9.15
2023-04-15T08:43:15.132Z,8.38
2023-04-15T08:45:41.983Z,8.32
2023-04-15T08:48:09.930Z,8.35
2023-04-15T08:50:36.436Z,8.93
2023-04-15T08:53:04.387Z,9.02
2023-04-15T08:55:36.309Z,7.90
2023-04-15T08:58:03.226Z,7.68
2023-04-15T09:00:30.900Z,8.30
2023-04-15T09:02:59.135Z,7.77
2023-04-15T09:05:25.910Z,7.63
2023-04-15T09:07:52.636Z,8.00
2023-04-15T09:10:20.569Z,8.98
2023-04-15T09:12:47.113Z,9.00
2023-04-15T09:15:13.803Z,8.23
2023-04-15T09:17:43.514Z,7.95
2023-04-15T09:20:12.019Z,8.23
2023-04-15T09:22:39.158Z,7.45
2023-04-15T09:25:26.824Z,7.93
2023-04-15T09:27:55.077Z,7.40
2023-04-15T09:30:21.970Z,7.88
2023-04-15T09:32:50.543Z,7.63
2023-04-15T09:35:17.584Z,7.60
2023-04-15T09:37:44.318Z,8.15
2023-04-15T09:40:12.032Z,6.97
2023-04-15T09:42:54.530Z,7.32
2023-04-15T09:45:21.866Z,6.82
2023-04-15T09:47:48.493Z,6.75
2023-04-15T09:52:56.244Z,6.80
2023-04-15T09:55:23.071Z,6.28
2023-04-15T09:57:50.967Z,7.07
2023-04-15T10:00:17.710Z,6.30
2023-04-15T10:02:44.883Z,6.53
2023-04-15T10:05:14.819Z,5.67
2023-04-15T10:07:42.408Z,5.88
2023-04-15T10:10:09.600Z,6.50
2023-04-15T10:12:37.622Z,6.30
2023-04-15T10:15:07.424Z,5.60
2023-04-15T10:17:34.462Z,5.70
2023-04-15T10:20:01.825Z,5.53
2023-04-15T10:22:28.918Z,6.22
2023-04-15T10:24:56.453Z,5.88
2023-04-15T10:27:23.550Z,5.88
2023-04-15T10:29:51.149Z,5.97
2023-04-15T10:32:21.233Z,5.50
2023-04-15T10:34:49.646Z,5.65
2023-04-15T10:37:21.378Z,6.18
2023-04-15T10:39:48.259Z,5.78
2023-04-15T10:42:16.607Z,5.37
2023-04-15T10:44:45.575Z,5.78
2023-04-15T10:47:13.498Z,5.53
2023-04-15T10:49:48.851Z,4.38
2023-04-15T10:52:16.417Z,4.85
2023-04-15T10:54:43.417Z,4.83
2023-04-15T10:57:16.052Z,5.38
2023-04-15T11:00:11.606Z,5.35
2023-04-15T11:02:43.616Z,5.90
2023-04-15T11:05:43.584Z,5.63
2023-04-15T11:08:12.686Z,5.47
2023-04-15T11:10:54.342Z,4.80
2023-04-15T11:13:22.825Z,5.60
2023-04-15T11:15:49.875Z,5.40
2023-04-15T11:18:18.052Z,5.40
2023-04-15T11:20:46.675Z,5.37
2023-04-15T11:23:15.827Z,5.30
2023-04-15T11:25:43.640Z,6.53
2023-04-15T11:28:12.449Z,5.40
2023-04-15T11:30:39.761Z,5.75
2023-04-15T11:33:08.322Z,5.40
2023-04-15T11:35:35.608Z,5.88
2023-04-15T11:38:03.708Z,5.85
2023-04-15T11:40:32.073Z,5.70
2023-04-15T11:43:05.842Z,5.82
2023-04-15T11:45:32.686Z,5.00
2023-04-15T11:48:06.521Z,5.30
2023-04-15T11:50:33.696Z,5.68
2023-04-15T11:53:01.749Z,5.75
2023-04-15T11:55:28.888Z,5.75
2023-04-15T11:58:15.650Z,5.17
2023-04-15T12:00:46.903Z,5.28
2023-04-15T12:03:15.186Z,5.25
2023-04-15T12:06:16.072Z,5.22
2023-04-15T12:08:50.811Z,5.40
2023-04-15T12:11:17.627Z,5.37
2023-04-15T12:13:47.195Z,4.60
2023-04-15T12:16:16.453Z,12.45
2023-04-15T12:18:45.586Z,6.03
2023-04-15T12:21:12.416Z,4.20
2023-04-15T12:23:40.114Z,3.70
2023-04-15T12:26:06.863Z,4.00
2023-04-15T12:28:34.549Z,4.20
2023-04-15T12:31:07.429Z,3.70
2023-04-15T12:33:34.204Z,3.88
2023-04-15T12:36:00.896Z,3.53
2023-04-15T12:38:27.682Z,3.75
2023-04-15T12:40:54.201Z,3.50
2023-04-15T12:43:20.768Z,3.55
2023-04-15T12:45:47.335Z,3.20
2023-04-15T12:48:15.259Z,3.20
2023-04-15T12:50:41.815Z,4.10
2023-04-15T12:53:08.670Z,2.80
2023-04-15T12:55:35.236Z,3.08
2023-04-15T12:58:01.783Z,4.35
2023-04-15T13:00:28.340Z,4.50
2023-04-15T13:02:55.181Z,2.83
2023-04-15T13:05:23.150Z,2.70
2023-04-15T13:07:49.825Z,2.90
2023-04-15T13:10:16.563Z,3.33
2023-04-15T13:12:43.245Z,2.73
2023-04-15T13:15:11.066Z,3.00
2023-04-15T13:17:38.404Z,2.95
2023-04-15T13:20:05.877Z,2.65
2023-04-15T13:22:33.813Z,2.97
2023-04-15T13:25:00.344Z,3.30
2023-04-15T13:27:27.053Z,2.80
2023-04-15T13:29:54.149Z,2.85
2023-04-15T13:32:20.804Z,2.92
2023-04-15T13:34:47.358Z,6.05
2023-04-15T13:37:13.932Z,4.60
2023-04-15T13:39:41.813Z,2.70
2023-04-15T13:42:08.499Z,3.28
2023-04-15T13:44:35.095Z,3.90
2023-04-15T13:47:01.670Z,2.92
2023-04-15T13:49:28.202Z,3.43
2023-04-15T13:51:54.746Z,3.53
2023-04-15T13:54:21.276Z,3.67
2023-04-15T13:56:49.184Z,2.80
2023-04-15T13:59:15.753Z,2.45
2023-04-15T14:01:42.364Z,2.80
2023-04-15T14:04:09.417Z,3.28
2023-04-15T14:06:36.351Z,3.33
2023-04-15T14:09:03.126Z,3.10
2023-04-15T14:11:30.004Z,3.20
2023-04-15T14:13:57.985Z,2.90
2023-04-15T14:16:24.671Z,2.67
2023-04-15T14:18:51.235Z,3.65
2023-04-15T14:21:17.824Z,3.15
2023-04-15T14:23:44.398Z,2.83
2023-04-15T14:26:10.989Z,3.37
2023-04-15T14:28:37.679Z,3.33
2023-04-15T14:31:05.793Z,4.10
2023-04-15T14:33:32.398Z,3.10
2023-04-15T14:35:59.016Z,4.55
2023-04-15T14:38:25.610Z,4.37
2023-04-15T14:40:52.179Z,3.60
2023-04-15T14:43:18.725Z,3.88
2023-04-15T14:45:45.706Z,3.05
2023-04-15T14:48:13.829Z,3.80
2023-04-15T14:50:40.669Z,3.50
2023-04-15T14:53:07.197Z,3.83
2023-04-15T14:55:33.785Z,3.50
2023-04-15T14:58:00.322Z,3.13
2023-04-15T15:00:26.921Z,3.97
2023-04-15T15:02:53.697Z,3.20
2023-04-15T15:05:21.998Z,3.58
2023-04-15T15:07:48.779Z,3.63
2023-04-15T15:10:15.278Z,2.90
2023-04-15T15:12:41.782Z,3.08
2023-04-15T15:15:19.502Z,3.70
2023-04-15T15:17:55.129Z,3.17
2023-04-15T15:20:23.356Z,3.58
2023-04-15T15:22:50.033Z,3.08
2023-04-15T15:25:16.849Z,4.30
2023-04-15T15:27:43.447Z,4.40
2023-04-15T15:30:11.273Z,4.25
2023-04-15T15:32:39.552Z,4.65
2023-04-15T15:35:06.769Z,4.55
2023-04-15T15:37:35.517Z,5.13
2023-04-15T15:40:03.900Z,5.40
2023-04-15T15:42:31.707Z,5.60
2023-04-15T15:44:58.308Z,5.88
2023-04-15T15:47:25.130Z,6.15
2023-04-15T15:49:51.748Z,5.20
2023-04-15T15:52:18.317Z,5.70
2023-04-15T15:54:46.220Z,5.40
2023-04-15T15:57:12.805Z,5.07
2023-04-15T15:59:39.389Z,5.80
2023-04-15T16:02:06.113Z,6.57
2023-04-15T16:04:33.025Z,7.23
2023-04-15T16:06:59.846Z,6.20
2023-04-15T16:09:26.581Z,5.78
2023-04-15T16:11:54.560Z,5.80
2023-04-15T16:14:21.236Z,6.20
2023-04-15T16:16:47.885Z,6.57
2023-04-15T16:19:14.455Z,5.80
2023-04-15T16:21:41.155Z,5.88
2023-04-15T16:24:07.716Z,6.95
2023-04-15T16:26:34.520Z,11.23
2023-04-15T16:29:03.065Z,7.53
2023-04-15T16:31:30.232Z,6.80
2023-04-15T16:33:57.406Z,8.27
2023-04-15T16:36:24.140Z,5.90
2023-04-15T16:38:50.668Z,5.72
2023-04-15T16:41:17.326Z,5.50
2023-04-15T16:43:44.068Z,6.97
2023-04-15T16:46:12.013Z,6.10
2023-04-15T16:48:38.740Z,6.18
2023-04-15T16:51:05.932Z,7.25
2023-04-15T16:53:32.457Z,6.43
2023-04-15T16:55:59.089Z,7.15
2023-04-15T16:58:25.927Z,5.93
2023-04-15T17:00:52.707Z,6.18
2023-04-15T17:03:20.729Z,5.82
2023-04-15T17:05:47.402Z,5.27
2023-04-15T17:08:13.942Z,5.40
2023-04-15T17:10:40.633Z,5.93
2023-04-15T17:13:07.383Z,8.50
2023-04-15T17:15:33.996Z,7.03
2023-04-15T17:18:00.666Z,6.40
2023-04-15T17:20:29.918Z,7.20
2023-04-15T17:22:56.570Z,6.05
2023-04-15T17:25:23.224Z,6.00
2023-04-15T17:27:49.919Z,7.38
2023-04-15T17:30:16.513Z,8.20
2023-04-15T17:32:43.118Z,7.28
2023-04-15T17:35:10.196Z,7.93
2023-04-15T17:37:38.796Z,5.95
2023-04-15T17:40:08.621Z,6.45
2023-04-15T17:42:35.759Z,9.10
2023-04-15T17:45:02.374Z,8.30
2023-04-15T17:47:29.100Z,6.35
2023-04-15T17:49:55.710Z,7.78
2023-04-15T17:52:22.280Z,8.68
2023-04-15T17:54:50.247Z,9.20
2023-04-15T17:57:16.947Z,7.72
2023-04-15T17:59:43.540Z,7.40
2023-04-15T18:02:10.293Z,6.82
2023-04-15T18:04:37.144Z,14.38
2023-04-15T18:07:04.810Z,12.80
2023-04-15T18:09:31.807Z,10.82
2023-04-15T18:11:59.749Z,8.68
2023-04-15T18:14:34.296Z,18.08
2023-04-15T18:17:01.801Z,9.13
2023-04-15T18:19:29.291Z,7.20
2023-04-15T18:21:55.856Z,7.18
2023-04-15T18:24:22.388Z,8.43
2023-04-15T18:26:49.318Z,7.50
2023-04-15T18:29:17.364Z,7.25
2023-04-15T18:31:44.102Z,6.70
2023-04-15T18:34:10.894Z,7.03
2023-04-15T18:36:37.642Z,7.95
2023-04-15T18:39:05.553Z,7.15
2023-04-15T18:41:32.404Z,7.15
2023-04-15T18:43:58.989Z,6.40
2023-04-15T18:46:54.931Z,6.35
2023-04-15T18:49:21.449Z,11.70
2023-04-15T18:51:48.068Z,7.20
2023-04-15T18:54:14.810Z,7.10
2023-04-15T18:56:41.681Z,6.70
2023-04-15T18:59:09.014Z,6.53
2023-04-15T19:01:56.467Z,6.53
2023-04-15T19:04:23.234Z,6.50
2023-04-15T19:06:49.861Z,6.13
2023-04-15T19:09:16.448Z,6.50
2023-04-15T19:11:43.708Z,7.15
2023-04-15T19:14:10.272Z,6.85
2023-04-15T19:16:37.049Z,6.38
2023-04-15T19:19:05.350Z,6.55
2023-04-15T19:21:32.283Z,6.93
2023-04-15T19:23:59.481Z,6.78
2023-04-15T19:26:26.334Z,7.30
2023-04-15T19:28:52.905Z,6.72
2023-04-15T19:31:19.720Z,7.50
2023-04-15T19:33:46.621Z,6.27
2023-04-15T19:36:14.575Z,6.80
2023-04-15T19:38:41.277Z,7.20
2023-04-15T19:41:07.823Z,7.35
2023-04-15T19:43:34.381Z,7.20
2023-04-15T19:46:01.000Z,8.23
2023-04-15T19:48:27.615Z,8.45
2023-04-15T19:50:54.302Z,8.85
2023-04-15T19:53:22.375Z,8.50
2023-04-15T19:55:48.974Z,9.10
2023-04-15T19:58:15.609Z,8.77
2023-04-15T20:00:42.408Z,9.60
2023-04-15T20:03:09.319Z,9.45
2023-04-15T20:05:35.996Z,9.65
2023-04-15T20:08:02.800Z,9.82
2023-04-15T20:10:30.741Z,10.30
2023-04-15T20:12:57.593Z,9.95
2023-04-15T20:15:24.301Z,10.82
2023-04-15T20:17:51.223Z,10.63
2023-04-15T20:20:17.871Z,10.63
2023-04-15T20:22:44.571Z,12.57
2023-04-15T20:25:11.124Z,12.05
2023-04-15T20:27:39.256Z,10.95
2023-04-15T20:30:12.250Z,11.32
2023-04-15T20:32:39.063Z,12.60
2023-04-15T20:35:06.390Z,11.73
2023-04-15T20:37:33.949Z,11.98
2023-04-15T20:40:01.285Z,11.27
2023-04-15T20:42:28.288Z,10.68
2023-04-15T20:44:56.245Z,11.13
2023-04-15T20:47:23.305Z,11.93
2023-04-15T20:49:50.022Z,11.38
2023-04-15T20:52:16.602Z,11.32
2023-04-15T20:54:43.884Z,10.20
2023-04-15T20:57:10.424Z,10.85
2023-04-15T20:59:36.983Z,10.90
2023-04-15T21:02:04.999Z,10.63
2023-04-15T21:04:31.669Z,11.32
2023-04-15T21:06:58.253Z,10.10
2023-04-15T21:09:24.844Z,10.02
2023-04-15T21:12:00.979Z,10.37
2023-04-15T21:14:28.495Z,9.88
2023-04-15T21:16:56.784Z,10.90
2023-04-15T21:19:24.854Z,11.02
2023-04-15T21:21:51.395Z,11.07
2023-04-15T21:24:17.985Z,10.63
2023-04-15T21:26:46.492Z,11.20
2023-04-15T21:29:13.347Z,11.70
2023-04-15T21:31:40.422Z,11.80
2023-04-15T21:34:07.089Z,12.13
2023-04-15T21:36:35.521Z,12.90
2023-04-15T21:39:02.330Z,11.68
2023-04-15T21:41:29.182Z,12.15
2023-04-15T21:43:56.010Z,12.50
2023-04-15T21:46:25.404Z,12.43
2023-04-15T21:48:53.740Z,11.50
2023-04-15T21:51:20.461Z,13.02
2023-04-15T21:53:48.390Z,12.18
2023-04-15T21:56:15.169Z,12.30
2023-04-15T21:58:41.752Z,13.20
2023-04-15T22:01:08.308Z,13.40
2023-04-15T22:03:35.271Z,14.07
2023-04-15T22:06:02.918Z,13.45
2023-04-15T22:08:32.132Z,13.23
2023-04-15T22:11:01.730Z,14.43
2023-04-15T22:13:28.265Z,13.83
2023-04-15T22:15:54.976Z,13.35
2023-04-15T22:18:21.618Z,14.38
2023-04-15T22:20:48.126Z,13.73
2023-04-15T22:23:15.586Z,12.68
2023-04-15T22:25:43.278Z,13.43
2023-04-15T22:28:13.078Z,13.20
2023-04-15T22:30:42.925Z,14.45
2023-04-15T22:33:09.941Z,13.10
2023-04-15T22:35:37.013Z,14.25
2023-04-15T22:38:04.611Z,14.17
2023-04-15T22:40:31.299Z,13.82
2023-04-15T22:42:57.874Z,15.27
2023-04-15T22:45:25.731Z,14.38
2023-04-15T22:47:52.434Z,13.82
2023-04-15T22:50:19.251Z,13.40
2023-04-15T22:52:46.312Z,13.43
2023-04-15T22:55:12.858Z,12.13
2023-04-15T22:57:39.446Z,12.43
2023-04-15T23:00:07.267Z,11.73
2023-04-15T23:02:35.207Z,12.20
2023-04-15T23:05:02.601Z,12.10
2023-04-15T23:07:39.327Z,11.23
2023-04-15T23:10:07.300Z,11.70
2023-04-15T23:12:33.913Z,11.68
2023-04-15T23:15:00.470Z,11.87
2023-04-15T23:17:27.141Z,11.60
2023-04-15T23:19:55.116Z,11.80
2023-04-15T23:22:21.669Z,11.48
2023-04-15T23:24:48.237Z,12.50
2023-04-15T23:27:14.888Z,12.00
2023-04-15T23:29:41.597Z,12.13
2023-04-15T23:32:08.099Z,12.13
2023-04-15T23:34:34.623Z,11.93
2023-04-15T23:37:02.693Z,13.32
2023-04-15T23:39:29.408Z,12.63
2023-04-15T23:41:56.157Z,12.75
2023-04-15T23:44:28.428Z,12.70
2023-04-15T23:46:55.009Z,13.30
2023-04-15T23:49:24.369Z,12.82
2023-04-15T23:51:50.915Z,14.00
2023-04-15T23:54:18.824Z,12.73
2023-04-15T23:56:45.532Z,14.48
2023-04-15T23:59:13.877Z,13.65
